createdAt,value
2022-12-17T00:01:52.184Z,53.05
2022-12-17T00:04:38.292Z,52.59
2022-12-17T00:07:24.071Z,52.61
2022-12-17T00:10:21.131Z,53.42
2022-12-17T00:13:07.357Z,52.86
2022-12-17T00:15:55.209Z,52.97
2022-12-17T00:18:41.951Z,52.46
2022-12-17T00:21:29.176Z,52.36
2022-12-17T00:24:15.127Z,51.93
2022-12-17T00:27:01.004Z,52.07
2022-12-17T00:29:46.738Z,51.84
2022-12-17T00:32:34.101Z,52.13
2022-12-17T00:35:19.729Z,51.73
2022-12-17T00:38:05.720Z,52.05
2022-12-17T00:40:51.653Z,51.74
2022-12-17T00:43:38.198Z,52.40
2022-12-17T00:46:24.476Z,52.18
2022-12-17T00:49:11.808Z,51.65
2022-12-17T00:51:57.623Z,52.26
2022-12-17T00:54:43.320Z,51.60
2022-12-17T00:57:28.824Z,51.24
2022-12-17T01:00:14.505Z,51.41
2022-12-17T01:03:00.368Z,51.81
2022-12-17T01:05:47.604Z,51.00
2022-12-17T01:08:34.145Z,51.38
2022-12-17T01:11:20.583Z,51.75
2022-12-17T01:14:07.030Z,51.20
2022-12-17T01:16:53.199Z,51.68
2022-12-17T01:19:42.156Z,51.74
2022-12-17T01:22:29.397Z,51.04
2022-12-17T01:25:15.416Z,51.22
2022-12-17T01:28:01.206Z,51.43
2022-12-17T01:30:47.015Z,51.59
2022-12-17T01:33:33.148Z,51.46
2022-12-17T01:36:19.013Z,51.69
2022-12-17T01:39:05.900Z,51.09
2022-12-17T01:41:51.711Z,51.14
2022-12-17T01:45:13.526Z,51.11
2022-12-17T01:48:06.228Z,51.60
2022-12-17T01:50:55.909Z,51.27
2022-12-17T01:53:47.771Z,51.14
2022-12-17T01:56:35.755Z,51.44
2022-12-17T01:59:22.981Z,51.50
2022-12-17T02:02:08.931Z,51.17
2022-12-17T02:04:54.988Z,51.10
2022-12-17T02:08:08.325Z,50.79
2022-12-17T02:11:03.909Z,50.71
2022-12-17T02:13:55.921Z,51.24
2022-12-17T02:16:57.350Z,50.97
2022-12-17T02:19:59.912Z,50.95
2022-12-17T02:23:00.594Z,50.43
2022-12-17T02:26:04.579Z,50.50
2022-12-17T02:28:53.747Z,50.75
2022-12-17T02:31:41.106Z,50.32
2022-12-17T02:34:26.791Z,50.62
2022-12-17T02:37:12.669Z,50.11
2022-12-17T02:39:58.872Z,50.44
2022-12-17T02:42:41.853Z,50.76
2022-12-17T02:45:29.434Z,50.20
2022-12-17T02:48:16.643Z,50.26
2022-12-17T02:51:02.510Z,50.28
2022-12-17T02:53:50.899Z,50.02
2022-12-17T02:56:36.802Z,50.40
2022-12-17T02:59:24.756Z,49.67
2022-12-17T03:02:12.373Z,49.89
2022-12-17T03:05:06.632Z,49.64
2022-12-17T03:08:04.016Z,49.38
2022-12-17T03:10:50.211Z,48.90
2022-12-17T03:13:42.480Z,49.78
2022-12-17T03:16:35.764Z,50.12
2022-12-17T03:19:24.812Z,49.38
2022-12-17T03:22:10.753Z,49.29
2022-12-17T03:24:56.688Z,49.64
2022-12-17T03:27:43.283Z,50.10
2022-12-17T03:30:35.526Z,49.74
2022-12-17T03:33:22.444Z,49.10
2022-12-17T03:36:23.745Z,49.46
2022-12-17T03:39:09.579Z,49.34
2022-12-17T03:41:55.191Z,49.20
2022-12-17T03:44:41.062Z,48.96
2022-12-17T03:47:26.870Z,48.79
2022-12-17T03:50:12.838Z,48.48
2022-12-17T03:53:00.039Z,48.54
2022-12-17T03:55:45.751Z,48.93
2022-12-17T03:58:31.747Z,49.15
2022-12-17T04:01:17.345Z,48.36
2022-12-17T04:04:03.173Z,48.83
2022-12-17T04:06:48.711Z,49.00
2022-12-17T04:09:35.710Z,48.61
2022-12-17T04:12:21.560Z,49.55
2022-12-17T04:15:07.108Z,48.75
2022-12-17T04:17:52.763Z,49.36
2022-12-17T04:20:38.715Z,49.34
2022-12-17T04:23:24.416Z,49.22
2022-12-17T04:26:08.141Z,48.57
2022-12-17T04:28:53.640Z,48.44
2022-12-17T04:31:39.601Z,48.66
2022-12-17T04:34:25.498Z,49.56
2022-12-17T04:37:11.255Z,49.05
2022-12-17T04:39:57.240Z,49.24
2022-12-17T04:42:40.862Z,49.12
2022-12-17T04:45:24.347Z,48.89
2022-12-17T04:48:10.520Z,48.51
2022-12-17T04:50:56.269Z,48.71
2022-12-17T04:53:42.198Z,48.94
2022-12-17T04:56:27.962Z,49.27
2022-12-17T04:59:15.079Z,49.27
2022-12-17T05:02:01.051Z,49.41
2022-12-17T05:04:46.836Z,49.71
2022-12-17T05:07:32.588Z,49.55
2022-12-17T05:10:18.391Z,49.29
2022-12-17T05:13:04.392Z,49.18
2022-12-17T05:15:53.480Z,49.37
2022-12-17T05:18:39.494Z,49.50
2022-12-17T05:21:28.091Z,49.24
2022-12-17T05:24:17.773Z,48.92
2022-12-17T05:27:03.938Z,49.14
2022-12-17T05:29:49.627Z,49.71
2022-12-17T05:32:36.554Z,48.88
2022-12-17T05:35:22.487Z,49.37
2022-12-17T05:38:16.635Z,49.83
2022-12-17T05:41:02.122Z,49.43
2022-12-17T05:43:47.980Z,49.30
2022-12-17T05:46:33.609Z,49.40
2022-12-17T05:49:20.764Z,49.78
2022-12-17T05:52:06.399Z,49.27
2022-12-17T05:54:52.136Z,49.96
2022-12-17T05:57:38.064Z,48.98
2022-12-17T06:00:26.101Z,49.65
2022-12-17T06:03:17.822Z,49.71
2022-12-17T06:06:05.988Z,49.14
2022-12-17T06:08:52.051Z,48.63
2022-12-17T06:11:37.791Z,49.69
2022-12-17T06:14:23.362Z,49.32
2022-12-17T06:17:09.235Z,49.32
2022-12-17T06:19:55.139Z,49.82
2022-12-17T06:22:42.330Z,49.39
2022-12-17T06:25:28.445Z,48.61
2022-12-17T06:28:18.204Z,48.99
2022-12-17T06:31:09.811Z,48.99
2022-12-17T06:33:56.529Z,49.36
2022-12-17T06:36:42.943Z,49.71
2022-12-17T06:39:30.265Z,49.10
2022-12-17T06:42:16.096Z,48.74
2022-12-17T06:45:02.045Z,48.96
2022-12-17T06:47:47.960Z,49.14
2022-12-17T06:50:33.723Z,48.80
2022-12-17T06:53:21.189Z,48.82
2022-12-17T06:56:08.651Z,49.03
2022-12-17T06:58:54.679Z,49.15
2022-12-17T07:01:41.109Z,48.75
2022-12-17T07:04:27.308Z,49.42
2022-12-17T07:07:13.125Z,49.06
2022-12-17T07:09:59.250Z,48.52
2022-12-17T07:12:46.346Z,48.61
2022-12-17T07:15:32.527Z,48.73
2022-12-17T07:18:20.228Z,48.46
2022-12-17T07:21:07.614Z,48.44
2022-12-17T07:23:53.432Z,49.09
2022-12-17T07:26:39.368Z,48.54
2022-12-17T07:29:38.213Z,48.52
2022-12-17T07:32:24.357Z,48.17
2022-12-17T07:35:09.976Z,48.44
2022-12-17T07:37:55.880Z,48.59
2022-12-17T07:40:41.847Z,48.78
2022-12-17T07:43:31.399Z,48.30
2022-12-17T07:46:18.402Z,48.27
2022-12-17T07:49:04.596Z,48.85
2022-12-17T07:51:50.392Z,48.64
2022-12-17T07:54:36.227Z,48.37
2022-12-17T07:57:22.126Z,48.21
2022-12-17T08:00:07.877Z,48.57
2022-12-17T08:02:54.952Z,47.84
2022-12-17T08:05:41.221Z,47.74
2022-12-17T08:08:27.882Z,47.92
2022-12-17T08:11:13.769Z,47.79
2022-12-17T08:13:59.392Z,48.03
2022-12-17T08:16:45.374Z,47.46
2022-12-17T08:19:32.577Z,47.63
2022-12-17T08:22:18.280Z,47.42
2022-12-17T08:25:04.004Z,47.51
2022-12-17T08:27:50.147Z,47.55
2022-12-17T08:30:36.120Z,47.58
2022-12-17T08:33:23.193Z,47.71
2022-12-17T08:36:15.786Z,47.02
2022-12-17T08:39:04.468Z,47.25
2022-12-17T08:41:54.814Z,47.36
2022-12-17T08:44:41.671Z,47.50
2022-12-17T08:47:27.536Z,47.69
2022-12-17T08:50:13.370Z,47.77
2022-12-17T08:53:00.547Z,47.10
2022-12-17T08:55:46.473Z,46.69
2022-12-17T08:58:32.816Z,47.33
2022-12-17T09:01:25.205Z,46.96
2022-12-17T09:04:10.912Z,47.00
2022-12-17T09:06:56.737Z,47.47
2022-12-17T09:09:43.935Z,47.05
2022-12-17T09:12:30.123Z,46.80
2022-12-17T09:15:16.141Z,47.11
2022-12-17T09:18:02.098Z,46.58
2022-12-17T09:21:02.401Z,46.21
2022-12-17T09:23:48.545Z,46.39
2022-12-17T09:26:35.762Z,46.86
2022-12-17T09:29:21.331Z,46.47
2022-12-17T09:32:07.253Z,46.10
2022-12-17T09:34:55.091Z,46.26
2022-12-17T09:37:40.765Z,46.12
2022-12-17T09:40:34.596Z,46.34
2022-12-17T09:43:35.244Z,46.58
2022-12-17T09:46:28.489Z,45.96
2022-12-17T09:49:22.177Z,46.66
2022-12-17T09:52:07.918Z,46.07
2022-12-17T09:55:01.725Z,46.40
2022-12-17T09:57:51.680Z,45.84
2022-12-17T10:00:42.209Z,46.20
2022-12-17T10:03:32.894Z,46.08
2022-12-17T10:06:26.413Z,46.05
2022-12-17T10:09:17.429Z,45.74
2022-12-17T10:12:03.644Z,45.34
2022-12-17T10:14:50.390Z,45.66
2022-12-17T10:17:43.172Z,45.90
2022-12-17T10:20:42.961Z,45.87
2022-12-17T10:23:28.880Z,45.62
2022-12-17T10:26:16.470Z,44.99
2022-12-17T10:29:02.230Z,44.80
2022-12-17T10:31:50.076Z,44.96
2022-12-17T10:34:39.422Z,44.98
2022-12-17T10:37:37.136Z,44.93
2022-12-17T10:40:44.399Z,45.54
2022-12-17T10:43:48.620Z,45.77
2022-12-17T10:46:45.328Z,45.92
2022-12-17T10:49:35.060Z,46.03
2022-12-17T10:52:35.033Z,45.88
2022-12-17T10:55:24.443Z,45.25
2022-12-17T10:58:11.127Z,45.11
2022-12-17T11:00:59.017Z,45.13
2022-12-17T11:03:51.181Z,44.87
2022-12-17T11:06:46.056Z,45.64
2022-12-17T11:09:50.607Z,45.03
2022-12-17T11:12:40.012Z,45.17
2022-12-17T11:15:39.122Z,44.81
2022-12-17T11:18:27.721Z,45.17
2022-12-17T11:21:22.723Z,44.99
2022-12-17T11:24:10.527Z,45.43
2022-12-17T11:27:00.303Z,45.05
2022-12-17T11:29:46.680Z,44.69
2022-12-17T11:33:11.610Z,44.90
2022-12-17T11:36:11.824Z,44.38
2022-12-17T11:39:00.826Z,44.82
2022-12-17T11:42:08.029Z,44.28
2022-12-17T11:45:11.198Z,44.62
2022-12-17T11:48:06.635Z,44.38
2022-12-17T11:51:03.028Z,43.88
2022-12-17T11:54:13.919Z,44.34
2022-12-17T11:57:04.155Z,44.11
2022-12-17T11:59:58.173Z,44.44
2022-12-17T12:03:10.426Z,44.34
2022-12-17T12:06:07.094Z,44.32
2022-12-17T12:08:59.509Z,44.16
2022-12-17T12:11:56.793Z,44.53
2022-12-17T12:14:57.841Z,44.10
2022-12-17T12:17:59.390Z,43.96
2022-12-17T12:21:04.776Z,44.72
2022-12-17T12:24:07.393Z,44.14
2022-12-17T12:27:01.239Z,44.57
2022-12-17T12:29:59.633Z,44.07
2022-12-17T12:32:53.563Z,44.26
2022-12-17T12:35:45.215Z,44.20
2022-12-17T12:38:45.707Z,44.15
2022-12-17T12:41:39.790Z,44.09
2022-12-17T12:44:49.536Z,44.10
2022-12-17T12:47:46.468Z,44.00
2022-12-17T12:50:40.791Z,43.23
2022-12-17T12:53:31.145Z,43.81
2022-12-17T12:56:17.063Z,43.87
2022-12-17T12:59:03.057Z,44.14
2022-12-17T13:01:54.373Z,43.64
2022-12-17T13:04:53.369Z,43.94
2022-12-17T13:07:27.875Z,43.85
2022-12-17T13:09:58.631Z,43.99
2022-12-17T13:12:36.140Z,44.18
2022-12-17T13:15:26.026Z,43.85
2022-12-17T13:18:16.298Z,44.13
2022-12-17T13:20:57.378Z,43.98
2022-12-17T13:23:35.948Z,44.46
2022-12-17T13:26:25.641Z,44.08
2022-12-17T13:29:14.363Z,44.09
2022-12-17T13:31:56.597Z,44.02
2022-12-17T13:34:35.122Z,43.45
2022-12-17T13:37:16.350Z,43.94
2022-12-17T13:40:01.533Z,43.76
2022-12-17T13:42:32.318Z,44.15
2022-12-17T13:45:01.820Z,43.64
2022-12-17T13:47:33.506Z,43.44
2022-12-17T13:50:32.901Z,43.70
2022-12-17T13:52:54.802Z,43.19
2022-12-17T13:55:26.710Z,43.19
2022-12-17T13:57:56.764Z,43.82
2022-12-17T14:00:28.879Z,43.72
2022-12-17T14:02:57.659Z,44.21
2022-12-17T14:05:30.657Z,44.16
2022-12-17T14:08:04.169Z,43.89
2022-12-17T14:10:33.485Z,43.73
2022-12-17T14:13:06.934Z,43.87
2022-12-17T14:15:35.776Z,44.30
2022-12-17T14:18:05.301Z,43.84
2022-12-17T14:20:36.908Z,44.32
2022-12-17T14:23:13.619Z,43.88
2022-12-17T14:25:45.363Z,44.34
2022-12-17T14:28:25.506Z,44.32
2022-12-17T14:34:07.494Z,44.28
2022-12-17T14:36:38.858Z,44.95
2022-12-17T14:39:19.326Z,44.35
2022-12-17T14:42:05.568Z,44.89
2022-12-17T14:44:34.201Z,44.88
2022-12-17T14:47:15.050Z,44.70
2022-12-17T14:49:59.711Z,44.58
2022-12-17T14:52:38.904Z,45.23
2022-12-17T14:55:33.244Z,44.70
2022-12-17T14:58:19.067Z,44.87
2022-12-17T15:00:51.610Z,45.12
2022-12-17T15:03:24.098Z,44.68
2022-12-17T15:05:58.910Z,44.85
2022-12-17T15:08:30.677Z,44.75
2022-12-17T15:11:00.552Z,45.34
2022-12-17T15:13:29.319Z,44.61
2022-12-17T15:15:58.087Z,45.11
2022-12-17T15:18:26.877Z,45.03
2022-12-17T15:20:55.884Z,45.20
2022-12-17T15:23:25.954Z,45.06
2022-12-17T15:25:56.227Z,45.61
2022-12-17T15:28:27.700Z,45.91
2022-12-17T15:30:56.230Z,46.07
2022-12-17T15:33:24.662Z,45.85
2022-12-17T15:35:53.314Z,45.37
2022-12-17T15:38:21.922Z,45.94
2022-12-17T15:40:53.188Z,45.78
2022-12-17T15:43:20.581Z,46.44
2022-12-17T15:45:53.583Z,46.01
2022-12-17T15:48:24.105Z,46.28
2022-12-17T15:50:52.631Z,46.30
2022-12-17T15:53:21.155Z,46.14
2022-12-17T15:55:49.613Z,45.65
2022-12-17T15:58:19.188Z,46.40
2022-12-17T16:00:49.103Z,46.01
2022-12-17T16:03:17.625Z,45.77
2022-12-17T16:05:46.406Z,46.31
2022-12-17T16:08:15.029Z,45.89
2022-12-17T16:10:44.021Z,45.86
2022-12-17T16:13:12.826Z,45.73
2022-12-17T16:15:41.621Z,45.68
2022-12-17T16:18:11.745Z,46.59
2022-12-17T16:20:40.427Z,45.80
2022-12-17T16:23:09.081Z,45.65
2022-12-17T16:25:37.757Z,45.97
2022-12-17T16:28:07.327Z,46.08
2022-12-17T16:30:37.143Z,45.99
2022-12-17T16:33:07.498Z,46.58
2022-12-17T16:35:38.738Z,46.68
2022-12-17T16:38:07.832Z,46.59
2022-12-17T16:40:37.121Z,45.87
2022-12-17T16:43:06.362Z,46.40
2022-12-17T16:45:35.188Z,45.80
2022-12-17T16:48:04.782Z,46.01
2022-12-17T16:50:34.796Z,46.07
2022-12-17T16:53:05.386Z,46.51
2022-12-17T16:55:35.176Z,46.28
2022-12-17T16:58:05.046Z,46.22
2022-12-17T17:00:34.309Z,46.11
2022-12-17T17:03:03.095Z,46.49
2022-12-17T17:05:34.272Z,46.62
2022-12-17T17:08:05.254Z,45.76
2022-12-17T17:10:36.763Z,46.33
2022-12-17T17:13:05.670Z,46.37
2022-12-17T17:15:34.053Z,46.06
2022-12-17T17:18:02.661Z,45.93
2022-12-17T17:20:32.513Z,45.48
2022-12-17T17:23:01.247Z,46.42
2022-12-17T17:25:54.150Z,46.01
2022-12-17T17:28:19.739Z,45.83
2022-12-17T17:30:48.204Z,45.98
2022-12-17T17:33:16.719Z,45.59
2022-12-17T17:35:45.089Z,46.39
2022-12-17T17:38:13.522Z,46.53
2022-12-17T17:40:43.308Z,46.00
2022-12-17T17:43:12.818Z,45.81
2022-12-17T17:45:43.132Z,46.46
2022-12-17T17:48:11.662Z,46.20
2022-12-17T17:50:40.604Z,46.14
2022-12-17T17:53:09.413Z,46.28
2022-12-17T17:55:37.988Z,46.49
2022-12-17T17:58:07.732Z,45.69
2022-12-17T18:00:36.164Z,46.74
2022-12-17T18:03:05.103Z,46.34
2022-12-17T18:05:41.738Z,46.86
2022-12-17T18:08:11.218Z,46.13
2022-12-17T18:10:39.815Z,46.71
2022-12-17T18:13:28.265Z,46.02
2022-12-17T18:16:02.864Z,46.11
2022-12-17T18:18:31.361Z,46.68
2022-12-17T18:21:06.466Z,46.29
2022-12-17T18:23:35.373Z,46.09
2022-12-17T18:26:12.768Z,46.14
2022-12-17T18:28:43.685Z,45.74
2022-12-17T18:31:15.255Z,46.22
2022-12-17T18:33:47.015Z,45.45
2022-12-17T18:36:18.235Z,46.33
2022-12-17T18:38:47.588Z,45.84
2022-12-17T18:41:37.181Z,46.38
2022-12-17T18:44:08.275Z,45.68
2022-12-17T18:46:36.973Z,46.26
2022-12-17T18:49:08.634Z,45.95
2022-12-17T18:51:40.141Z,46.14
2022-12-17T18:54:13.489Z,46.11
2022-12-17T18:57:02.511Z,45.76
2022-12-17T18:59:32.703Z,45.14
2022-12-17T19:02:01.832Z,44.48
2022-12-17T19:04:30.560Z,45.35
2022-12-17T19:07:00.035Z,44.86
2022-12-17T19:09:34.767Z,45.40
2022-12-17T19:12:04.390Z,45.52
2022-12-17T19:14:35.068Z,45.78
2022-12-17T19:17:04.098Z,44.94
2022-12-17T19:19:33.399Z,45.86
2022-12-17T19:22:02.203Z,45.92
2022-12-17T19:24:31.264Z,45.03
2022-12-17T19:27:00.260Z,44.91
2022-12-17T19:29:29.114Z,45.21
2022-12-17T19:31:58.949Z,45.96
2022-12-17T19:34:27.911Z,45.10
2022-12-17T19:36:56.529Z,44.98
2022-12-17T19:39:25.218Z,45.19
2022-12-17T19:41:54.228Z,44.36
2022-12-17T19:44:24.006Z,44.35
2022-12-17T19:46:54.473Z,44.73
2022-12-17T19:49:24.498Z,44.23
2022-12-17T19:51:53.240Z,44.94
2022-12-17T19:54:23.312Z,44.77
2022-12-17T19:56:52.186Z,44.63
2022-12-17T19:59:20.859Z,45.03
2022-12-17T20:01:49.670Z,44.44
2022-12-17T20:04:18.751Z,45.05
2022-12-17T20:06:49.363Z,44.55
2022-12-17T20:09:18.939Z,44.78
2022-12-17T20:11:47.651Z,44.28
2022-12-17T20:14:18.947Z,44.58
2022-12-17T20:16:50.174Z,44.56
2022-12-17T20:19:22.196Z,44.71
2022-12-17T20:21:54.241Z,44.22
2022-12-17T20:24:30.316Z,44.51
2022-12-17T20:27:01.052Z,44.12
2022-12-17T20:29:30.181Z,44.75
2022-12-17T20:31:59.347Z,44.40
2022-12-17T20:34:28.247Z,44.38
2022-12-17T20:36:58.331Z,44.17
2022-12-17T20:39:28.210Z,44.84
2022-12-17T20:41:58.144Z,44.82
2022-12-17T20:44:26.902Z,44.87
2022-12-17T20:46:56.786Z,44.28
2022-12-17T20:49:25.991Z,44.89
2022-12-17T20:51:54.505Z,45.04
2022-12-17T20:54:26.122Z,44.78
2022-12-17T20:56:54.932Z,44.39
2022-12-17T20:59:23.456Z,43.92
2022-12-17T21:01:56.055Z,44.42
2022-12-17T21:04:25.780Z,43.97
2022-12-17T21:06:55.109Z,44.23
2022-12-17T21:09:26.270Z,44.49
2022-12-17T21:11:54.859Z,43.32
2022-12-17T21:14:23.929Z,43.60
2022-12-17T21:16:53.186Z,43.86
2022-12-17T21:19:21.696Z,44.05
2022-12-17T21:21:50.704Z,44.33
2022-12-17T21:24:19.132Z,43.87
2022-12-17T21:26:49.182Z,44.51
2022-12-17T21:29:18.510Z,43.17
2022-12-17T21:31:49.385Z,44.33
2022-12-17T21:34:22.428Z,43.95
2022-12-17T21:36:51.679Z,44.52
2022-12-17T21:39:20.908Z,43.94
2022-12-17T21:42:05.187Z,44.02
2022-12-17T21:44:34.072Z,43.80
2022-12-17T21:47:02.996Z,43.95
2022-12-17T21:49:31.564Z,43.43
2022-12-17T21:52:01.244Z,43.36
2022-12-17T21:54:30.008Z,43.52
2022-12-17T21:56:59.840Z,43.97
2022-12-17T21:59:28.345Z,44.02
2022-12-17T22:01:57.573Z,43.53
2022-12-17T22:04:26.865Z,43.66
2022-12-17T22:07:00.309Z,43.34
2022-12-17T22:09:49.696Z,43.92
2022-12-17T22:12:43.568Z,43.31
2022-12-17T22:15:13.008Z,43.39
2022-12-17T22:17:43.007Z,43.21
2022-12-17T22:20:12.674Z,42.80
2022-12-17T22:22:41.143Z,43.28
2022-12-17T22:25:11.664Z,43.16
2022-12-17T22:27:42.738Z,42.83
2022-12-17T22:30:34.630Z,43.75
2022-12-17T22:33:17.890Z,42.97
2022-12-17T22:39:29.547Z,43.21
2022-12-17T22:41:04.148Z,43.63
2022-12-17T22:44:42.956Z,43.51
2022-12-17T22:44:51.530Z,43.77
2022-12-17T22:47:22.526Z,42.87
2022-12-17T22:49:51.026Z,43.25
2022-12-17T22:52:20.545Z,43.32
2022-12-17T22:54:49.186Z,43.59
2022-12-17T22:57:37.710Z,43.60
2022-12-17T23:00:18.337Z,43.52
2022-12-17T23:02:46.790Z,43.80
2022-12-17T23:05:16.231Z,43.63
2022-12-17T23:07:44.583Z,43.29
2022-12-17T23:10:13.002Z,43.33
2022-12-17T23:12:54.094Z,43.64
2022-12-17T23:15:28.909Z,43.43
2022-12-17T23:18:00.506Z,43.64
2022-12-17T23:20:32.911Z,43.84
2022-12-17T23:23:01.916Z,43.54
2022-12-17T23:25:31.115Z,43.63
2022-12-17T23:27:59.539Z,43.64
2022-12-17T23:30:29.356Z,43.09
2022-12-17T23:32:57.771Z,43.22
2022-12-17T23:35:26.135Z,43.17
2022-12-17T23:37:54.487Z,43.42
2022-12-17T23:40:23.396Z,43.40
2022-12-17T23:42:51.748Z,43.53
2022-12-17T23:45:20.299Z,43.38
2022-12-17T23:47:50.043Z,44.08
2022-12-17T23:50:18.638Z,43.51
2022-12-17T23:52:47.018Z,43.42
2022-12-17T23:55:15.425Z,43.55
2022-12-17T23:57:43.840Z,43.77
